Time;durP1;ratioP1;P1;durP2;ratioP2;P2;SDS_P1;SDS_P2;PMS_P1;PMS_P2;Temp;Humidity;BMP_temperature;BMP_pressure;BME280_temperature;BME280_humidity;BME280_pressure;Samples;Min_cycle;Max_cycle;Signal;HPM_P1;HPM_P2
2022/07/27 00:00:59;;;;;;;;;;;;;;;14.89;65.73;101950.97;5021529;28;19975;-61
2022/07/27 00:03:24;;;;;;;;;;;;;;;14.90;65.48;101955.31;5025648;28;19928;-61
2022/07/27 00:05:50;;;;;;;;;;;;;;;14.89;65.75;101953.66;5028879;28;19921;-60
2022/07/27 00:08:15;;;;;;;;;;;;;;;14.87;65.92;101947.66;5025611;28;19927;-61
2022/07/27 00:10:40;;;;;;;;;;;;;;;14.84;66.07;101953.28;5028775;28;20288;-61
2022/07/27 00:13:06;;;;;;;;;;;;;;;14.77;66.55;101952.28;5031222;28;19921;-60
2022/07/27 00:15:31;;;;;;;;;;;;;;;14.63;66.63;101946.53;5027940;28;19928;-61
2022/07/27 00:17:59;;;;;;;;;;;;;;;14.55;66.74;101946.50;5026975;28;19998;-61
2022/07/27 00:20:25;;;;;;;;;;;;;;;14.51;66.82;101950.50;5026701;28;19922;-60
2022/07/27 00:22:50;;;;;;;;;;;;;;;14.42;67.10;101951.44;5023640;28;19921;-61
2022/07/27 00:25:15;;;;;;;;;;;;;;;14.39;67.30;101947.25;5030133;28;19921;-61
2022/07/27 00:27:40;;;;;;;;;;;;;;;14.32;67.51;101952.41;5028951;28;19968;-60
2022/07/27 00:30:06;;;;;;;;;;;;;;;14.26;67.34;101947.69;5029708;28;19925;-61
2022/07/27 00:32:31;;;;;;;;;;;;;;;14.23;67.19;101953.34;5029733;28;19921;-60
2022/07/27 00:34:56;;;;;;;;;;;;;;;14.21;67.55;101944.69;5024297;28;19933;-61
2022/07/27 00:37:21;;;;;;;;;;;;;;;14.14;67.67;101944.47;5029164;28;20384;-60
2022/07/27 00:39:46;;;;;;;;;;;;;;;14.13;67.71;101948.13;5029596;28;20007;-60
2022/07/27 00:42:12;;;;;;;;;;;;;;;14.12;67.53;101947.28;5029638;28;19932;-60
2022/07/27 00:44:37;;;;;;;;;;;;;;;14.13;67.51;101943.63;5025198;28;19925;-61
2022/07/27 00:47:02;;;;;;;;;;;;;;;14.11;67.66;101945.63;5028368;28;19921;-61
2022/07/27 00:49:27;;;;;;;;;;;;;;;14.10;67.70;101941.28;5027748;28;19927;-60
2022/07/27 00:51:53;;;;;;;;;;;;;;;14.12;67.72;101944.63;5025547;28;20372;-61
2022/07/27 00:54:19;;;;;;;;;;;;;;;14.11;67.84;101950.94;5031212;28;19925;-60
2022/07/27 00:56:44;;;;;;;;;;;;;;;14.09;67.72;101944.94;5023296;28;19921;-60
2022/07/27 00:59:10;;;;;;;;;;;;;;;14.08;68.09;101950.44;5023960;28;20323;-60
2022/07/27 01:01:35;;;;;;;;;;;;;;;14.06;68.17;101952.44;5026818;28;20376;-60
2022/07/27 01:04:00;;;;;;;;;;;;;;;14.04;68.27;101951.72;5029704;28;19928;-60
2022/07/27 01:06:27;;;;;;;;;;;;;;;14.04;67.97;101949.06;5019747;28;19932;-61
2022/07/27 01:08:52;;;;;;;;;;;;;;;14.02;68.22;101946.56;5026215;28;19933;-60
2022/07/27 01:11:17;;;;;;;;;;;;;;;13.97;68.33;101951.53;5026375;28;19921;-61
2022/07/27 01:13:42;;;;;;;;;;;;;;;13.93;68.25;101947.50;5020621;28;20265;-60
2022/07/27 01:16:08;;;;;;;;;;;;;;;13.91;68.65;101944.16;5019937;28;20015;-60
2022/07/27 01:18:38;;;;;;;;;;;;;;;13.87;68.52;101945.47;5023737;28;20356;-61
2022/07/27 01:21:06;;;;;;;;;;;;;;;13.84;68.59;101944.78;5028000;28;20275;-60
2022/07/27 01:23:32;;;;;;;;;;;;;;;13.82;68.61;101941.44;5028528;28;19925;-60
2022/07/27 01:25:58;;;;;;;;;;;;;;;13.77;69.40;101950.91;5027329;28;20390;-60
2022/07/27 01:28:23;;;;;;;;;;;;;;;13.64;69.39;101948.63;5017159;28;19926;-61
2022/07/27 01:30:49;;;;;;;;;;;;;;;13.55;69.41;101951.22;5023584;28;19928;-60
2022/07/27 01:33:14;;;;;;;;;;;;;;;13.47;69.59;101948.47;5031727;28;19944;-60
2022/07/27 01:35:39;;;;;;;;;;;;;;;13.41;69.59;101952.56;5025812;28;19931;-60
2022/07/27 01:38:05;;;;;;;;;;;;;;;13.38;69.86;101952.06;5001695;28;19929;-60
2022/07/27 01:40:35;;;;;;;;;;;;;;;13.34;69.78;101951.53;5027818;28;20364;-61
2022/07/27 01:43:00;;;;;;;;;;;;;;;13.34;70.29;101950.66;5024912;28;19925;-60
2022/07/27 01:45:26;;;;;;;;;;;;;;;13.26;70.55;101946.94;5024018;28;20566;-60
2022/07/27 01:47:51;;;;;;;;;;;;;;;13.10;70.82;101941.44;5022759;28;20402;-60
2022/07/27 01:50:16;;;;;;;;;;;;;;;13.00;71.38;101945.03;5031480;28;19932;-60
2022/07/27 01:52:41;;;;;;;;;;;;;;;12.90;71.50;101936.25;5030071;28;19921;-60
2022/07/27 01:55:07;;;;;;;;;;;;;;;12.82;71.40;101938.84;5026224;28;19925;-60
2022/07/27 01:57:33;;;;;;;;;;;;;;;12.78;71.31;101939.13;5030259;28;19917;-60
2022/07/27 01:59:59;;;;;;;;;;;;;;;12.77;71.00;101948.13;5028485;28;20398;-60
2022/07/27 02:02:24;;;;;;;;;;;;;;;12.76;71.30;101938.47;5026941;28;19968;-60
2022/07/27 02:04:49;;;;;;;;;;;;;;;12.73;71.75;101940.59;5032822;28;19929;-60
2022/07/27 02:07:15;;;;;;;;;;;;;;;12.66;71.44;101935.00;5023085;28;19921;-60
2022/07/27 02:09:40;;;;;;;;;;;;;;;12.67;71.80;101936.66;5024676;28;19921;-60
2022/07/27 02:14:49;;;;;;;;;;;;;;;12.71;71.31;101938.06;5032620;28;19944;-60
2022/07/27 02:17:14;;;;;;;;;;;;;;;12.68;71.50;101933.03;5027367;28;20359;-60
2022/07/27 02:19:39;;;;;;;;;;;;;;;12.65;72.51;101938.66;5029632;28;19921;-60
2022/07/27 02:22:04;;;;;;;;;;;;;;;12.60;71.65;101932.94;5025961;28;20388;-60
2022/07/27 02:24:29;;;;;;;;;;;;;;;12.55;71.89;101932.53;5021666;28;19960;-60
2022/07/27 02:26:54;;;;;;;;;;;;;;;12.50;71.78;101919.69;5029875;28;19921;-60
2022/07/27 02:29:20;;;;;;;;;;;;;;;12.46;72.08;101924.47;5029122;28;19921;-60
2022/07/27 02:31:45;;;;;;;;;;;;;;;12.44;72.21;101923.75;5028122;28;20432;-60
2022/07/27 02:34:10;;;;;;;;;;;;;;;12.46;72.32;101924.47;5023284;28;19976;-60
2022/07/27 02:36:35;;;;;;;;;;;;;;;12.42;72.25;101928.41;5028684;28;19921;-61
2022/07/27 02:39:01;;;;;;;;;;;;;;;12.36;72.88;101924.50;5023374;28;19921;-60
2022/07/27 02:41:26;;;;;;;;;;;;;;;12.30;72.58;101927.75;5031777;28;19976;-60
2022/07/27 02:43:51;;;;;;;;;;;;;;;12.20;73.01;101919.78;5029911;28;19921;-60
2022/07/27 02:46:16;;;;;;;;;;;;;;;12.18;73.32;101923.59;5027871;28;20000;-60
2022/07/27 02:48:42;;;;;;;;;;;;;;;12.11;73.52;101920.69;5023740;28;20334;-60
2022/07/27 02:51:07;;;;;;;;;;;;;;;12.03;72.96;101917.88;5028507;28;19921;-60
2022/07/27 02:53:32;;;;;;;;;;;;;;;12.01;73.38;101925.16;5025412;28;20409;-61
2022/07/27 02:55:57;;;;;;;;;;;;;;;12.01;72.86;101919.84;5021176;28;19928;-60
2022/07/27 02:58:22;;;;;;;;;;;;;;;12.05;72.57;101921.25;5031511;28;20383;-60
2022/07/27 03:00:48;;;;;;;;;;;;;;;12.10;72.54;101919.00;5023180;28;19925;-60
2022/07/27 03:03:13;;;;;;;;;;;;;;;12.13;72.77;101918.69;5026254;28;20252;-60
2022/07/27 03:05:38;;;;;;;;;;;;;;;12.12;73.04;101917.03;5025925;28;19944;-60
2022/07/27 03:08:04;;;;;;;;;;;;;;;12.05;72.96;101916.75;5027562;28;20319;-60
2022/07/27 03:10:29;;;;;;;;;;;;;;;12.00;73.16;101924.31;5031199;28;20379;-60
2022/07/27 03:12:54;;;;;;;;;;;;;;;11.97;73.24;101924.59;5027454;28;20004;-60
2022/07/27 03:15:20;;;;;;;;;;;;;;;11.99;73.08;101922.63;5027780;28;19929;-60
2022/07/27 03:17:45;;;;;;;;;;;;;;;11.98;73.18;101926.28;5031162;28;20537;-60
2022/07/27 03:20:10;;;;;;;;;;;;;;;11.97;73.33;101930.78;5029889;28;19929;-60
2022/07/27 03:22:36;;;;;;;;;;;;;;;11.93;73.58;101926.72;5028115;28;19925;-60
2022/07/27 03:25:01;;;;;;;;;;;;;;;11.92;73.30;101930.34;5028351;28;19925;-60
2022/07/27 03:27:27;;;;;;;;;;;;;;;11.90;73.64;101932.31;5028402;28;19925;-61
2022/07/27 03:29:53;;;;;;;;;;;;;;;11.82;73.48;101926.88;5026329;28;20356;-60
2022/07/27 03:32:18;;;;;;;;;;;;;;;11.74;74.20;101932.06;5028152;28;19925;-60
2022/07/27 03:34:43;;;;;;;;;;;;;;;11.74;73.74;101929.41;5016274;28;19929;-60
2022/07/27 03:37:08;;;;;;;;;;;;;;;11.79;73.90;101932.50;5020776;28;20335;-60
2022/07/27 03:39:33;;;;;;;;;;;;;;;11.81;74.06;101925.19;5022401;28;19926;-60
2022/07/27 03:41:58;;;;;;;;;;;;;;;11.83;74.10;101928.53;5020682;28;19925;-60
2022/07/27 03:44:24;;;;;;;;;;;;;;;11.82;73.76;101932.19;5023418;28;20016;-60
2022/07/27 03:46:49;;;;;;;;;;;;;;;11.77;74.16;101931.78;5028646;28;19921;-61
2022/07/27 03:49:14;;;;;;;;;;;;;;;11.76;74.85;101927.44;5030701;28;19967;-60
2022/07/27 03:51:39;;;;;;;;;;;;;;;11.73;74.10;101928.56;5029389;28;19960;-60
2022/07/27 03:54:05;;;;;;;;;;;;;;;11.71;74.76;101931.34;5028725;28;19929;-60
2022/07/27 03:56:32;;;;;;;;;;;;;;;11.73;74.47;101938.38;5026930;28;20342;-60
2022/07/27 03:58:57;;;;;;;;;;;;;;;11.76;74.71;101932.75;5024111;28;19930;-61
2022/07/27 04:01:22;;;;;;;;;;;;;;;11.78;73.88;101934.28;5023481;28;19975;-60
2022/07/27 04:03:47;;;;;;;;;;;;;;;11.83;74.41;101939.16;5004149;28;19921;-60
2022/07/27 04:06:12;;;;;;;;;;;;;;;11.85;74.09;101937.22;5031395;28;20012;-60
2022/07/27 04:08:38;;;;;;;;;;;;;;;11.91;74.12;101931.34;5030012;28;20253;-60
2022/07/27 04:11:03;;;;;;;;;;;;;;;11.96;74.27;101933.56;5025044;28;19928;-61
2022/07/27 04:13:28;;;;;;;;;;;;;;;11.99;74.32;101933.25;5029395;28;20007;-60
2022/07/27 04:15:56;;;;;;;;;;;;;;;12.02;74.38;101932.13;5016986;28;20214;-60
2022/07/27 04:18:22;;;;;;;;;;;;;;;12.01;74.91;101933.13;5028957;28;20356;-60
2022/07/27 04:20:47;;;;;;;;;;;;;;;12.03;74.75;101929.34;5018013;28;19936;-60
2022/07/27 04:23:12;;;;;;;;;;;;;;;12.08;74.07;101927.13;5025259;28;19979;-60
2022/07/27 04:25:37;;;;;;;;;;;;;;;12.11;74.57;101939.28;5028940;28;20013;-60
2022/07/27 04:28:03;;;;;;;;;;;;;;;12.09;74.35;101933.28;5027769;28;19925;-60
2022/07/27 04:30:28;;;;;;;;;;;;;;;12.09;75.16;101933.28;5028546;28;19963;-60
2022/07/27 04:32:53;;;;;;;;;;;;;;;12.08;74.96;101943.06;5028400;28;19921;-60
2022/07/27 04:35:18;;;;;;;;;;;;;;;12.13;75.02;101939.97;5030702;28;19928;-60
2022/07/27 04:37:43;;;;;;;;;;;;;;;12.13;75.10;101937.31;5025275;28;20380;-60
2022/07/27 04:40:09;;;;;;;;;;;;;;;12.13;75.25;101942.63;5024514;28;19921;-60
2022/07/27 04:42:34;;;;;;;;;;;;;;;12.12;75.33;101940.97;5029346;28;19921;-60
2022/07/27 04:44:59;;;;;;;;;;;;;;;12.09;75.58;101950.06;5021494;28;19929;-60
2022/07/27 04:47:25;;;;;;;;;;;;;;;12.10;75.20;101951.72;5018702;28;19921;-61
2022/07/27 04:49:50;;;;;;;;;;;;;;;12.14;75.65;101946.97;5030364;28;19975;-60
2022/07/27 04:52:15;;;;;;;;;;;;;;;12.16;75.60;101945.03;5027460;28;20265;-60
2022/07/27 04:54:41;;;;;;;;;;;;;;;12.17;75.40;101946.69;5028749;28;19953;-60
2022/07/27 04:57:06;;;;;;;;;;;;;;;12.22;74.89;101956.88;5026032;28;19925;-60
2022/07/27 04:59:31;;;;;;;;;;;;;;;12.26;75.18;101952.09;5024137;28;19955;-60
2022/07/27 05:01:56;;;;;;;;;;;;;;;12.30;75.25;101958.81;5029346;28;19929;-60
2022/07/27 05:04:21;;;;;;;;;;;;;;;12.35;74.84;101959.22;5023363;28;20268;-60
2022/07/27 05:06:47;;;;;;;;;;;;;;;12.39;74.79;101957.97;5021237;28;19925;-61
2022/07/27 05:09:12;;;;;;;;;;;;;;;12.44;74.82;101963.66;5030739;28;20518;-60
2022/07/27 05:11:37;;;;;;;;;;;;;;;12.46;75.30;101959.06;5034639;28;19921;-60
2022/07/27 05:14:02;;;;;;;;;;;;;;;12.49;75.10;101961.41;5032551;28;19928;-60
2022/07/27 05:16:28;;;;;;;;;;;;;;;12.47;75.07;101963.38;5028751;28;19929;-60
2022/07/27 05:18:53;;;;;;;;;;;;;;;12.46;74.90;101961.72;5026117;28;19935;-61
2022/07/27 05:21:18;;;;;;;;;;;;;;;12.53;75.08;101966.44;5028522;28;20351;-60
2022/07/27 05:23:43;;;;;;;;;;;;;;;12.54;75.19;101973.44;5024813;28;20055;-60
2022/07/27 05:26:09;;;;;;;;;;;;;;;12.55;75.51;101981.28;5025523;28;19929;-60
2022/07/27 05:28:34;;;;;;;;;;;;;;;12.56;75.54;101977.63;5029768;28;19921;-60
2022/07/27 05:30:59;;;;;;;;;;;;;;;12.56;75.55;101987.41;5032061;28;20023;-60
2022/07/27 05:33:24;;;;;;;;;;;;;;;12.57;75.82;101989.09;5030218;28;20795;-61
2022/07/27 05:35:49;;;;;;;;;;;;;;;12.60;75.39;101994.97;5029594;28;19925;-60
2022/07/27 05:38:15;;;;;;;;;;;;;;;12.64;76.92;101984.88;5028712;28;20399;-60
2022/07/27 05:40:42;;;;;;;;;;;;;;;12.68;75.63;101985.41;5033153;28;19936;-60
2022/07/27 05:43:07;;;;;;;;;;;;;;;12.70;75.16;101984.28;5033457;28;20441;-59
2022/07/27 05:45:32;;;;;;;;;;;;;;;12.72;75.85;101981.47;5032730;28;19929;-58
2022/07/27 05:47:58;;;;;;;;;;;;;;;12.75;76.08;101979.38;5031767;28;20040;-59
2022/07/27 05:50:24;;;;;;;;;;;;;;;12.80;75.76;101984.25;5034015;28;19921;-59
2022/07/27 05:52:49;;;;;;;;;;;;;;;12.86;76.21;101983.66;5025257;28;20904;-58
2022/07/27 05:55:14;;;;;;;;;;;;;;;12.96;75.74;101991.56;5026343;28;19918;-58
2022/07/27 05:57:42;;;;;;;;;;;;;;;13.04;75.86;101990.84;5026909;28;19967;-59
2022/07/27 06:00:08;;;;;;;;;;;;;;;13.18;75.73;102002.81;5031250;28;19928;-61
2022/07/27 06:02:34;;;;;;;;;;;;;;;13.30;75.20;101998.94;5028101;28;19925;-60
2022/07/27 06:04:59;;;;;;;;;;;;;;;13.44;76.68;101999.41;5029422;28;19963;-60
2022/07/27 06:10:08;;;;;;;;;;;;;;;13.67;76.20;101998.97;5026397;28;19932;-60
2022/07/27 06:12:40;;;;;;;;;;;;;;;13.79;74.89;101999.56;5032222;28;19917;-60
2022/07/27 06:15:06;;;;;;;;;;;;;;;13.92;74.79;101999.16;5030584;28;19921;-60
2022/07/27 06:17:31;;;;;;;;;;;;;;;14.02;74.77;101996.41;5032695;28;19921;-60
2022/07/27 06:19:56;;;;;;;;;;;;;;;14.13;74.53;102004.97;5032655;28;19952;-60
2022/07/27 06:22:22;;;;;;;;;;;;;;;14.28;74.41;102003.56;5031998;28;19916;-60
2022/07/27 06:24:47;;;;;;;;;;;;;;;14.36;74.32;102004.44;5032412;28;19944;-60
2022/07/27 06:27:12;;;;;;;;;;;;;;;14.47;74.10;101992.69;5027091;28;20418;-60
2022/07/27 06:29:37;;;;;;;;;;;;;;;14.58;74.34;101996.03;5022507;28;20475;-60
2022/07/27 06:32:03;;;;;;;;;;;;;;;14.63;73.61;101996.41;5031803;28;19966;-60
2022/07/27 06:34:29;;;;;;;;;;;;;;;14.72;74.10;101998.13;5032507;28;19967;-60
2022/07/27 06:36:55;;;;;;;;;;;;;;;14.79;73.62;101995.66;5020203;28;20368;-60
2022/07/27 06:39:21;;;;;;;;;;;;;;;14.83;73.17;102005.03;5026212;28;19922;-60
2022/07/27 06:41:46;;;;;;;;;;;;;;;14.93;73.26;102003.06;5031934;28;20343;-60
2022/07/27 06:44:11;;;;;;;;;;;;;;;15.03;72.87;101996.75;5033997;28;19921;-60
2022/07/27 06:46:36;;;;;;;;;;;;;;;15.06;72.48;102002.59;5031073;28;20399;-60
2022/07/27 06:49:01;;;;;;;;;;;;;;;15.12;72.08;102001.13;5030046;28;19968;-60
2022/07/27 06:51:27;;;;;;;;;;;;;;;15.14;70.90;102004.47;5029337;28;20488;-60
2022/07/27 06:53:53;;;;;;;;;;;;;;;15.22;71.02;102000.97;5006529;28;19976;-60
2022/07/27 06:56:18;;;;;;;;;;;;;;;15.31;71.63;102009.84;5034162;28;19921;-60
2022/07/27 06:58:44;;;;;;;;;;;;;;;15.43;70.48;102000.50;5032135;28;19929;-60
2022/07/27 07:01:09;;;;;;;;;;;;;;;15.36;70.59;102002.19;5032250;28;20015;-60
2022/07/27 07:03:34;;;;;;;;;;;;;;;15.44;69.97;102004.84;5029439;28;19921;-60
2022/07/27 07:06:00;;;;;;;;;;;;;;;15.52;70.59;102005.84;5029965;28;19921;-60
2022/07/27 07:08:25;;;;;;;;;;;;;;;15.64;70.82;102011.72;5032094;28;19921;-60
2022/07/27 07:10:50;;;;;;;;;;;;;;;15.76;69.96;102025.59;5030885;28;19970;-60
2022/07/27 07:13:15;;;;;;;;;;;;;;;15.83;69.54;102019.41;5033534;28;19928;-60
2022/07/27 07:15:42;;;;;;;;;;;;;;;15.91;69.49;102015.91;5032774;28;19927;-60
2022/07/27 07:18:08;;;;;;;;;;;;;;;16.00;69.06;102019.44;5032951;28;19936;-60
2022/07/27 07:20:33;;;;;;;;;;;;;;;16.10;68.30;102009.38;5024599;28;19929;-58
2022/07/27 07:22:59;;;;;;;;;;;;;;;16.14;69.12;102016.06;5022652;28;19929;-58
2022/07/27 07:25:24;;;;;;;;;;;;;;;16.25;68.28;102020.22;5021678;28;19921;-58
2022/07/27 07:27:50;;;;;;;;;;;;;;;16.39;68.24;102013.31;5026913;28;19927;-58
2022/07/27 07:30:15;;;;;;;;;;;;;;;16.46;67.55;102018.84;5029328;28;20292;-59
2022/07/27 07:32:40;;;;;;;;;;;;;;;16.53;65.57;102016.31;5030471;28;19921;-58
2022/07/27 07:35:06;;;;;;;;;;;;;;;16.49;67.09;102017.66;5030306;28;20034;-59
2022/07/27 07:37:31;;;;;;;;;;;;;;;16.50;67.07;102022.84;5031839;28;19957;-59
2022/07/27 07:39:57;;;;;;;;;;;;;;;16.53;66.69;102017.13;5031167;28;19932;-58
2022/07/27 07:42:22;;;;;;;;;;;;;;;16.49;65.96;102017.66;5028712;28;19927;-58
2022/07/27 07:44:47;;;;;;;;;;;;;;;16.56;67.23;102023.16;5028645;28;19921;-58
2022/07/27 07:47:12;;;;;;;;;;;;;;;16.61;65.25;102024.31;5024367;28;21785;-59
2022/07/27 07:49:37;;;;;;;;;;;;;;;16.62;65.63;102019.81;5027544;28;19921;-59
2022/07/27 07:52:03;;;;;;;;;;;;;;;16.65;64.96;102024.81;5027263;28;19995;-58
2022/07/27 07:54:28;;;;;;;;;;;;;;;16.62;65.79;102025.16;5027620;28;19925;-58
2022/07/27 07:56:53;;;;;;;;;;;;;;;16.72;65.08;102023.09;5025822;28;19921;-58
2022/07/27 07:59:19;;;;;;;;;;;;;;;16.90;66.01;102025.53;5027324;28;19947;-58
2022/07/27 08:01:44;;;;;;;;;;;;;;;17.06;64.82;102024.66;5026928;28;19924;-59
2022/07/27 08:04:09;;;;;;;;;;;;;;;17.16;63.55;102035.16;5029689;28;19935;-58
2022/07/27 08:06:34;;;;;;;;;;;;;;;17.07;63.33;102036.19;5030709;28;19975;-58
2022/07/27 08:09:00;;;;;;;;;;;;;;;16.94;63.73;102036.75;5024175;28;19943;-58
2022/07/27 08:11:25;;;;;;;;;;;;;;;16.93;63.28;102040.44;5031732;28;19927;-58
2022/07/27 08:13:51;;;;;;;;;;;;;;;16.87;63.56;102035.78;5021336;28;19921;-57
2022/07/27 08:16:16;;;;;;;;;;;;;;;16.65;64.33;102048.91;5027478;28;19925;-59
2022/07/27 08:18:41;;;;;;;;;;;;;;;16.57;63.54;102040.91;5030608;28;19921;-58
2022/07/27 08:21:07;;;;;;;;;;;;;;;16.51;64.73;102047.75;5026588;28;20426;-58
2022/07/27 08:23:32;;;;;;;;;;;;;;;16.47;64.71;102041.09;5027605;28;19928;-58
2022/07/27 08:25:57;;;;;;;;;;;;;;;16.44;64.83;102042.28;5024812;28;19921;-57
2022/07/27 08:28:22;;;;;;;;;;;;;;;16.45;64.51;102043.09;5028052;28;19921;-58
2022/07/27 08:30:48;;;;;;;;;;;;;;;16.37;64.25;102043.94;5020538;28;19967;-58
2022/07/27 08:33:13;;;;;;;;;;;;;;;16.32;64.65;102039.09;5028050;28;19926;-58
2022/07/27 08:35:39;;;;;;;;;;;;;;;16.31;64.36;102039.28;5023239;28;19960;-58
2022/07/27 08:38:05;;;;;;;;;;;;;;;16.54;64.39;102031.38;5031123;28;19921;-58
2022/07/27 08:40:30;;;;;;;;;;;;;;;16.79;61.54;102026.75;5019062;28;19917;-57
2022/07/27 08:42:56;;;;;;;;;;;;;;;17.19;62.54;102028.59;5024315;28;20456;-58
2022/07/27 08:45:23;;;;;;;;;;;;;;;17.49;60.27;102023.38;5033935;28;19979;-58
2022/07/27 08:47:48;;;;;;;;;;;;;;;17.76;55.79;102031.88;5028322;28;19932;-59
2022/07/27 08:50:24;;;;;;;;;;;;;;;17.85;58.66;102025.44;5023781;28;19918;-60
2022/07/27 08:52:52;;;;;;;;;;;;;;;17.91;59.05;102036.47;5023430;28;19931;-59
2022/07/27 08:55:18;;;;;;;;;;;;;;;17.90;58.01;102029.44;5032124;28;19932;-59
2022/07/27 08:57:43;;;;;;;;;;;;;;;17.81;58.12;102032.19;5033334;28;19921;-59
2022/07/27 09:00:09;;;;;;;;;;;;;;;17.83;58.84;102034.69;5028966;28;19956;-59
2022/07/27 09:02:34;;;;;;;;;;;;;;;17.83;58.33;102030.16;5026038;28;20012;-59
2022/07/27 09:04:59;;;;;;;;;;;;;;;17.79;56.15;102036.06;5028833;28;19932;-61
2022/07/27 09:07:28;;;;;;;;;;;;;;;17.77;54.84;102038.94;5031464;28;19922;-59
2022/07/27 09:09:53;;;;;;;;;;;;;;;17.74;55.86;102041.97;5034108;28;19921;-59
2022/07/27 09:12:25;;;;;;;;;;;;;;;17.77;56.75;102041.63;5025217;28;19928;-60
2022/07/27 09:14:50;;;;;;;;;;;;;;;17.84;55.83;102044.41;5033313;28;19929;-59
2022/07/27 09:17:23;;;;;;;;;;;;;;;17.87;56.67;102036.81;5034345;28;19921;-59
2022/07/27 09:20:08;;;;;;;;;;;;;;;17.88;57.15;102038.47;5030039;28;20016;-59
2022/07/27 09:23:00;;;;;;;;;;;;;;;17.90;53.85;102041.00;5022812;28;19921;-59
2022/07/27 09:25:29;;;;;;;;;;;;;;;17.94;54.41;102052.19;5022939;28;20406;-60
2022/07/27 09:27:55;;;;;;;;;;;;;;;18.00;56.85;102046.09;5029092;28;19935;-59
2022/07/27 09:30:20;;;;;;;;;;;;;;;18.14;55.58;102045.34;5031769;28;19921;-59
2022/07/27 09:32:51;;;;;;;;;;;;;;;18.10;58.01;102045.88;5034915;28;19921;-59
2022/07/27 09:35:18;;;;;;;;;;;;;;;18.08;56.17;102043.38;5029056;28;20483;-60
2022/07/27 09:37:43;;;;;;;;;;;;;;;17.99;56.15;102041.75;5023725;28;19949;-59
2022/07/27 09:40:10;;;;;;;;;;;;;;;17.92;56.85;102048.88;5029410;28;19963;-60
2022/07/27 09:42:35;;;;;;;;;;;;;;;17.77;57.68;102046.13;5025484;28;19928;-59
2022/07/27 09:45:00;;;;;;;;;;;;;;;17.55;58.26;102044.13;5024576;28;19925;-60
2022/07/27 09:47:27;;;;;;;;;;;;;;;17.50;58.42;102049.19;5032710;28;20432;-60
2022/07/27 09:49:53;;;;;;;;;;;;;;;17.46;58.95;102050.53;5026103;28;20324;-61
2022/07/27 09:52:22;;;;;;;;;;;;;;;17.39;59.27;102044.22;5022624;28;19975;-59
2022/07/27 09:54:48;;;;;;;;;;;;;;;17.38;59.23;102048.78;5032155;28;19983;-58
2022/07/27 09:57:13;;;;;;;;;;;;;;;17.41;59.15;102036.84;5028139;28;19921;-59
2022/07/27 09:59:38;;;;;;;;;;;;;;;17.45;59.19;102043.50;5033708;28;20328;-59
2022/07/27 10:02:03;;;;;;;;;;;;;;;17.48;58.86;102045.84;5021344;28;19917;-59
2022/07/27 10:04:31;;;;;;;;;;;;;;;17.55;58.95;102048.63;5026273;28;19922;-60
2022/07/27 10:06:56;;;;;;;;;;;;;;;17.64;59.22;102047.56;5030908;28;19921;-60
2022/07/27 10:09:22;;;;;;;;;;;;;;;17.74;59.38;102042.81;5030579;28;20387;-59
2022/07/27 10:11:48;;;;;;;;;;;;;;;17.84;58.99;102045.25;5028353;28;19936;-60
2022/07/27 10:14:13;;;;;;;;;;;;;;;17.85;59.15;102051.44;5031184;28;19921;-60
2022/07/27 10:16:40;;;;;;;;;;;;;;;17.81;59.47;102048.28;5030489;28;19970;-58
2022/07/27 10:19:05;;;;;;;;;;;;;;;17.82;59.30;102039.19;5031242;28;19963;-58
2022/07/27 10:21:32;;;;;;;;;;;;;;;17.76;59.53;102034.56;5033720;28;20317;-58
2022/07/27 10:23:58;;;;;;;;;;;;;;;17.69;59.56;102047.03;5027393;28;19925;-58
2022/07/27 10:26:24;;;;;;;;;;;;;;;17.83;59.88;102029.31;5032009;28;20000;-59
2022/07/27 10:28:50;;;;;;;;;;;;;;;18.13;59.20;102024.88;5031675;28;20121;-58
2022/07/27 10:31:17;;;;;;;;;;;;;;;18.48;58.87;102035.09;5019633;28;19917;-59
2022/07/27 10:33:43;;;;;;;;;;;;;;;18.75;58.24;102026.56;5030717;28;19928;-59
2022/07/27 10:36:35;;;;;;;;;;;;;;;19.03;57.81;102023.19;5029505;28;19925;-59
2022/07/27 10:39:01;;;;;;;;;;;;;;;19.08;57.42;102026.13;5023141;28;19988;-58
2022/07/27 10:41:28;;;;;;;;;;;;;;;19.03;55.41;102029.41;5029204;28;20257;-59
2022/07/27 10:44:13;;;;;;;;;;;;;;;18.89;57.12;102023.00;5022305;28;19921;-59
2022/07/27 10:46:41;;;;;;;;;;;;;;;18.74;56.57;102030.28;5026343;28;20430;-59
2022/07/27 10:49:17;;;;;;;;;;;;;;;18.51;56.86;102028.53;5018200;28;20160;-59
2022/07/27 10:51:42;;;;;;;;;;;;;;;18.29;56.79;102017.66;5025295;28;19967;-58
2022/07/27 10:54:33;;;;;;;;;;;;;;;18.09;56.70;102018.22;5028698;28;19949;-59
2022/07/27 10:56:59;;;;;;;;;;;;;;;17.99;57.30;102018.44;5022193;28;20434;-59
2022/07/27 10:59:39;;;;;;;;;;;;;;;17.93;57.59;102008.44;5029323;28;19929;-59
2022/07/27 11:02:08;;;;;;;;;;;;;;;17.94;57.64;102014.63;5024330;28;19964;-58
2022/07/27 11:04:41;;;;;;;;;;;;;;;17.95;57.16;102019.81;5019563;28;20408;-59
2022/07/27 11:07:06;;;;;;;;;;;;;;;17.96;57.31;102012.63;5025400;28;20351;-59
2022/07/27 11:09:39;;;;;;;;;;;;;;;17.98;57.33;102010.56;5027695;28;19960;-59
2022/07/27 11:12:05;;;;;;;;;;;;;;;18.03;57.45;102008.19;5020413;28;19921;-59
2022/07/27 11:14:30;;;;;;;;;;;;;;;18.13;57.03;102014.16;5032989;28;19928;-59
2022/07/27 11:16:56;;;;;;;;;;;;;;;18.21;57.35;102009.72;5025035;28;19965;-59
2022/07/27 11:19:22;;;;;;;;;;;;;;;18.26;56.66;102020.75;5030086;28;19928;-59
2022/07/27 11:21:48;;;;;;;;;;;;;;;18.32;56.72;102017.31;5022190;28;19925;-59
2022/07/27 11:24:16;;;;;;;;;;;;;;;18.36;56.92;102007.84;5022013;28;19929;-58
2022/07/27 11:26:45;;;;;;;;;;;;;;;18.48;56.96;102012.75;5019148;28;19928;-59
2022/07/27 11:29:11;;;;;;;;;;;;;;;18.59;55.92;102006.91;5031327;28;19922;-58
2022/07/27 11:31:38;;;;;;;;;;;;;;;18.67;56.03;102004.16;5032606;28;20096;-59
2022/07/27 11:34:03;;;;;;;;;;;;;;;18.78;55.72;101993.94;5020735;28;20695;-61
2022/07/27 11:36:50;;;;;;;;;;;;;;;18.92;53.87;101998.44;5032670;28;19921;-60
2022/07/27 11:39:17;;;;;;;;;;;;;;;18.92;53.05;102001.13;5030255;28;19921;-60
2022/07/27 11:41:43;;;;;;;;;;;;;;;19.07;52.34;102003.81;5031232;28;19921;-60
2022/07/27 11:44:16;;;;;;;;;;;;;;;18.97;53.92;101997.88;5029595;28;19952;-61
2022/07/27 11:46:42;;;;;;;;;;;;;;;19.00;52.83;101999.34;5029361;28;19975;-58
2022/07/27 11:49:09;;;;;;;;;;;;;;;19.00;53.30;101996.66;5027923;28;19921;-58
2022/07/27 11:51:35;;;;;;;;;;;;;;;19.06;52.88;101998.63;5030660;28;19948;-58
2022/07/27 11:54:01;;;;;;;;;;;;;;;19.21;52.41;101994.00;5019953;28;19944;-60
2022/07/27 11:56:28;;;;;;;;;;;;;;;19.14;53.07;101998.50;5023603;28;19929;-61
2022/07/27 11:58:56;;;;;;;;;;;;;;;19.20;52.77;102000.41;5021453;28;20143;-61
2022/07/27 12:01:25;;;;;;;;;;;;;;;19.25;51.41;101999.03;5028740;28;20380;-60
2022/07/27 12:04:01;;;;;;;;;;;;;;;19.41;52.13;102004.16;5025265;28;20379;-61
2022/07/27 12:06:26;;;;;;;;;;;;;;;19.60;52.26;101996.47;5029819;28;19925;-60
2022/07/27 12:08:51;;;;;;;;;;;;;;;19.87;50.56;102002.03;5028670;28;20402;-60
2022/07/27 12:11:26;;;;;;;;;;;;;;;20.08;48.86;101997.69;5025393;28;19932;-60
2022/07/27 12:13:55;;;;;;;;;;;;;;;20.17;48.62;101985.72;5031639;28;19921;-60
2022/07/27 12:16:21;;;;;;;;;;;;;;;20.25;49.30;101982.88;5028462;28;19928;-61
2022/07/27 12:18:46;;;;;;;;;;;;;;;20.37;48.60;101985.00;5031964;28;19921;-61
2022/07/27 12:21:16;;;;;;;;;;;;;;;20.51;47.61;101986.72;5028375;28;20063;-60
2022/07/27 12:23:48;;;;;;;;;;;;;;;20.65;46.55;101976.00;5015008;28;19932;-61
2022/07/27 12:26:17;;;;;;;;;;;;;;;20.87;46.51;101986.69;5023419;28;19921;-61
2022/07/27 12:28:42;;;;;;;;;;;;;;;20.99;47.00;101987.75;5024092;28;19928;-61
2022/07/27 12:31:15;;;;;;;;;;;;;;;21.14;46.58;101994.84;5031853;28;19925;-61
2022/07/27 12:33:41;;;;;;;;;;;;;;;21.14;46.00;101994.84;5031901;28;20322;-60
2022/07/27 12:36:07;;;;;;;;;;;;;;;20.99;45.88;101990.47;5021669;28;19921;-61